Saint Paul, MN (55106)

1:37 PM CST on November 28, 2014 (GMT -0600)
Mounds Park, East Metro | Change Station
CLOSE
Current Station
Personal Weather Station
Location: Saint Paul, MN
Elevation: 850 ft
Nearby Weather Stations

Elev 850 ft 44.95 °N, 93.06 °W | Updated 6 minutes ago

Overcast
Overcast
21.1 °F
Feels Like 21 °F
N
2.0
Wind Variable Wind from NNE
Gusts 11.0 mph

Today
High -- | Low -- °F
--% Chance of Precip.
Yesterday
High -- | Low -- °F
Precip. -- in
7:26 AM 4:33 PM
Waxing Crescent, 43% visible
Pressure 29.88 in
Visibility 10.0 miles
Clouds Scattered Clouds 2200 ft
Mostly Cloudy 8000 ft
Overcast 10000 ft
Windchill 21 °F
Dew Point 9 °F
Humidity 60%
Rainfall -999.00 in
Snow Depth Not available.
UV 1 out of 12
Pollen .10 out of 12
Air Quality Not available.
Flu Activity Not available.
SPECI KSTP 281915Z 12011KT 10SM SCT022 BKN080 OVC100 M06/M11 A2988 RMK AO2 T10611106

More Conditions Fewer Conditions

Pressure 29.88 in
Visibility 10.0 miles
Clouds Scattered Clouds 2200 ft
Mostly Cloudy 8000 ft
Overcast 10000 ft
Windchill 21 °F
Dew Point 9 °F
Humidity 60%
Rainfall -999.00 in
Snow Depth Not available.
UV 1 out of 12
Pollen .10 out of 12
Air Quality Not available.
Flu Activity Not available.
SPECI KSTP 281915Z 12011KT 10SM SCT022 BKN080 OVC100 M06/M11 A2988 RMK AO2 T10611106

More Conditions Fewer Conditions

10-Day Weather Forecast

Almanac

Astronomy

Nov. 28, 2014 Rise Set
Actual Time
Civil Twilight
Nautical Twilight
Astronomical Twilight
Moon
Length of Visible Light
Length of Day
Tomorrow will be .
, % of the Moon is Illuminated

Today's Extremes

State Highs State Lows

Community

WunderPhotos

Upload Photos

1,774,267 photos uploaded!

WunderBlogs® & News

Nearby

Air Quality

  Air Quality AQ Index Pollutant
Not available.

Snow Depth

Station Depth Elevation

Earthquake Activity

City Distance Mag. Time & Date
Minimum magnitude displayed is 2.5.

Coastal Water Temperatures

Place Temperature

Nearby Weather Stations